sensor_id;sensor_type;location;lat;lon;timestamp;pressure;altitude;pressure_sealevel;temperature
20103;BMP180;10210;52.284;9.892;2022-11-25T00:01:25;100334.00;;;10.00
20103;BMP180;10210;52.284;9.892;2022-11-25T00:03:54;100322.00;;;9.90
20103;BMP180;10210;52.284;9.892;2022-11-25T00:06:34;100316.00;;;9.90
20103;BMP180;10210;52.284;9.892;2022-11-25T00:09:06;100310.00;;;9.90
20103;BMP180;10210;52.284;9.892;2022-11-25T00:11:38;100311.00;;;9.90
20103;BMP180;10210;52.284;9.892;2022-11-25T00:14:06;100309.00;;;10.00
20103;BMP180;10210;52.284;9.892;2022-11-25T00:16:32;100322.00;;;10.00
20103;BMP180;10210;52.284;9.892;2022-11-25T00:18:58;100312.00;;;10.00
20103;BMP180;10210;52.284;9.892;2022-11-25T00:21:28;100311.00;;;10.00
20103;BMP180;10210;52.284;9.892;2022-11-25T00:23:58;100303.00;;;10.00
20103;BMP180;10210;52.284;9.892;2022-11-25T00:26:27;100307.00;;;10.00
20103;BMP180;10210;52.284;9.892;2022-11-25T00:28:53;100293.00;;;10.00
20103;BMP180;10210;52.284;9.892;2022-11-25T00:31:22;100290.00;;;10.00
20103;BMP180;10210;52.284;9.892;2022-11-25T00:33:49;100289.00;;;10.00
20103;BMP180;10210;52.284;9.892;2022-11-25T00:36:24;100288.00;;;10.00
20103;BMP180;10210;52.284;9.892;2022-11-25T00:39:03;100279.00;;;10.00
20103;BMP180;10210;52.284;9.892;2022-11-25T00:41:29;100268.00;;;10.00
20103;BMP180;10210;52.284;9.892;2022-11-25T00:44:19;100272.00;;;10.00
20103;BMP180;10210;52.284;9.892;2022-11-25T00:47:05;100266.00;;;10.00
20103;BMP180;10210;52.284;9.892;2022-11-25T00:49:31;100262.00;;;10.10
20103;BMP180;10210;52.284;9.892;2022-11-25T00:51:57;100268.00;;;10.10
20103;BMP180;10210;52.284;9.892;2022-11-25T00:54:23;100278.00;;;10.10
20103;BMP180;10210;52.284;9.892;2022-11-25T00:56:50;100278.00;;;10.10
20103;BMP180;10210;52.284;9.892;2022-11-25T00:59:16;100281.00;;;10.10
20103;BMP180;10210;52.284;9.892;2022-11-25T01:01:42;100272.00;;;10.10
20103;BMP180;10210;52.284;9.892;2022-11-25T01:04:08;100276.00;;;10.10
20103;BMP180;10210;52.284;9.892;2022-11-25T01:06:36;100280.00;;;10.10
20103;BMP180;10210;52.284;9.892;2022-11-25T01:09:04;100287.00;;;10.10
20103;BMP180;10210;52.284;9.892;2022-11-25T01:11:30;100275.00;;;10.10
20103;BMP180;10210;52.284;9.892;2022-11-25T01:13:56;100271.00;;;10.10
20103;BMP180;10210;52.284;9.892;2022-11-25T01:16:24;100271.00;;;10.10
20103;BMP180;10210;52.284;9.892;2022-11-25T01:18:50;100276.00;;;10.10
20103;BMP180;10210;52.284;9.892;2022-11-25T01:21:34;100275.00;;;10.10
20103;BMP180;10210;52.284;9.892;2022-11-25T01:24:02;100274.00;;;10.10
20103;BMP180;10210;52.284;9.892;2022-11-25T01:26:29;100271.00;;;10.10
20103;BMP180;10210;52.284;9.892;2022-11-25T01:28:59;100268.00;;;10.10
20103;BMP180;10210;52.284;9.892;2022-11-25T01:31:31;100264.00;;;10.10
20103;BMP180;10210;52.284;9.892;2022-11-25T01:34:11;100278.00;;;10.10
20103;BMP180;10210;52.284;9.892;2022-11-25T01:36:37;100268.00;;;10.10
20103;BMP180;10210;52.284;9.892;2022-11-25T01:39:03;100271.00;;;10.10
20103;BMP180;10210;52.284;9.892;2022-11-25T01:41:32;100261.00;;;10.10
20103;BMP180;10210;52.284;9.892;2022-11-25T01:44:23;100256.00;;;10.00
20103;BMP180;10210;52.284;9.892;2022-11-25T01:47:15;100267.00;;;10.00
20103;BMP180;10210;52.284;9.892;2022-11-25T01:49:48;100265.00;;;10.10
20103;BMP180;10210;52.284;9.892;2022-11-25T01:52:24;100276.00;;;10.10
20103;BMP180;10210;52.284;9.892;2022-11-25T01:55:04;100271.00;;;10.10
20103;BMP180;10210;52.284;9.892;2022-11-25T02:00:08;100269.00;;;10.10
20103;BMP180;10210;52.284;9.892;2022-11-25T02:02:34;100267.00;;;10.10
20103;BMP180;10210;52.284;9.892;2022-11-25T02:05:09;100267.00;;;10.00
20103;BMP180;10210;52.284;9.892;2022-11-25T02:07:39;100263.00;;;10.00
20103;BMP180;10210;52.284;9.892;2022-11-25T02:10:28;100258.00;;;9.90
20103;BMP180;10210;52.284;9.892;2022-11-25T02:12:56;100268.00;;;9.90
20103;BMP180;10210;52.284;9.892;2022-11-25T02:15:22;100268.00;;;9.90
20103;BMP180;10210;52.284;9.892;2022-11-25T02:17:48;100272.00;;;9.90
20103;BMP180;10210;52.284;9.892;2022-11-25T02:20:19;100269.00;;;9.90
20103;BMP180;10210;52.284;9.892;2022-11-25T02:25:39;100261.00;;;9.90
20103;BMP180;10210;52.284;9.892;2022-11-25T02:30:37;100256.00;;;9.90
20103;BMP180;10210;52.284;9.892;2022-11-25T02:33:03;100250.00;;;9.90
20103;BMP180;10210;52.284;9.892;2022-11-25T02:35:42;100248.00;;;9.90
20103;BMP180;10210;52.284;9.892;2022-11-25T02:38:48;100260.00;;;9.90
20103;BMP180;10210;52.284;9.892;2022-11-25T02:41:36;100254.00;;;9.90
20103;BMP180;10210;52.284;9.892;2022-11-25T02:44:04;100244.00;;;9.90
20103;BMP180;10210;52.284;9.892;2022-11-25T02:46:30;100248.00;;;9.90
20103;BMP180;10210;52.284;9.892;2022-11-25T02:48:58;100250.00;;;9.90
20103;BMP180;10210;52.284;9.892;2022-11-25T02:51:27;100248.00;;;9.90
20103;BMP180;10210;52.284;9.892;2022-11-25T02:53:54;100241.00;;;9.90
20103;BMP180;10210;52.284;9.892;2022-11-25T02:56:25;100235.00;;;9.90
20103;BMP180;10210;52.284;9.892;2022-11-25T02:58:51;100236.00;;;9.90
20103;BMP180;10210;52.284;9.892;2022-11-25T03:01:17;100236.00;;;9.90
20103;BMP180;10210;52.284;9.892;2022-11-25T03:03:43;100245.00;;;9.90
20103;BMP180;10210;52.284;9.892;2022-11-25T03:06:09;100248.00;;;9.90
20103;BMP180;10210;52.284;9.892;2022-11-25T03:08:36;100240.00;;;9.80
20103;BMP180;10210;52.284;9.892;2022-11-25T03:11:03;100256.00;;;9.80
20103;BMP180;10210;52.284;9.892;2022-11-25T03:13:28;100262.00;;;9.80
20103;BMP180;10210;52.284;9.892;2022-11-25T03:15:54;100253.00;;;9.80
20103;BMP180;10210;52.284;9.892;2022-11-25T03:18:20;100251.00;;;9.80
20103;BMP180;10210;52.284;9.892;2022-11-25T03:20:45;100247.00;;;9.90
20103;BMP180;10210;52.284;9.892;2022-11-25T03:23:11;100252.00;;;9.90
20103;BMP180;10210;52.284;9.892;2022-11-25T03:25:37;100242.00;;;9.90
20103;BMP180;10210;52.284;9.892;2022-11-25T03:28:03;100238.00;;;9.90
20103;BMP180;10210;52.284;9.892;2022-11-25T03:30:30;100238.00;;;9.90
20103;BMP180;10210;52.284;9.892;2022-11-25T03:32:56;100242.00;;;9.90
20103;BMP180;10210;52.284;9.892;2022-11-25T03:35:22;100241.00;;;9.90
20103;BMP180;10210;52.284;9.892;2022-11-25T03:37:48;100238.00;;;9.90
20103;BMP180;10210;52.284;9.892;2022-11-25T03:40:15;100231.00;;;9.90
20103;BMP180;10210;52.284;9.892;2022-11-25T03:42:42;100249.00;;;9.90
20103;BMP180;10210;52.284;9.892;2022-11-25T03:45:10;100242.00;;;9.90
20103;BMP180;10210;52.284;9.892;2022-11-25T03:47:39;100243.00;;;9.90
20103;BMP180;10210;52.284;9.892;2022-11-25T03:50:05;100246.00;;;9.90
20103;BMP180;10210;52.284;9.892;2022-11-25T03:52:31;100246.00;;;9.90
20103;BMP180;10210;52.284;9.892;2022-11-25T03:54:57;100249.00;;;9.90
20103;BMP180;10210;52.284;9.892;2022-11-25T03:57:23;100241.00;;;9.90
20103;BMP180;10210;52.284;9.892;2022-11-25T03:59:48;100239.00;;;9.90
20103;BMP180;10210;52.284;9.892;2022-11-25T04:02:15;100231.00;;;9.90
20103;BMP180;10210;52.284;9.892;2022-11-25T04:04:41;100248.00;;;9.90
20103;BMP180;10210;52.284;9.892;2022-11-25T04:07:07;100231.00;;;9.90
20103;BMP180;10210;52.284;9.892;2022-11-25T04:09:33;100230.00;;;9.90
20103;BMP180;10210;52.284;9.892;2022-11-25T04:11:59;100238.00;;;9.90
20103;BMP180;10210;52.284;9.892;2022-11-25T04:14:43;100226.00;;;9.90
20103;BMP180;10210;52.284;9.892;2022-11-25T04:17:08;100233.00;;;9.90
20103;BMP180;10210;52.284;9.892;2022-11-25T04:19:34;100236.00;;;9.90
20103;BMP180;10210;52.284;9.892;2022-11-25T04:22:00;100245.00;;;9.90
20103;BMP180;10210;52.284;9.892;2022-11-25T04:24:27;100243.00;;;9.90
20103;BMP180;10210;52.284;9.892;2022-11-25T04:26:53;100241.00;;;9.90
20103;BMP180;10210;52.284;9.892;2022-11-25T04:29:19;100244.00;;;9.90
20103;BMP180;10210;52.284;9.892;2022-11-25T04:31:45;100251.00;;;10.00
20103;BMP180;10210;52.284;9.892;2022-11-25T04:34:11;100251.00;;;10.00
20103;BMP180;10210;52.284;9.892;2022-11-25T04:36:37;100251.00;;;10.00
20103;BMP180;10210;52.284;9.892;2022-11-25T04:39:03;100252.00;;;10.00
20103;BMP180;10210;52.284;9.892;2022-11-25T04:41:29;100240.00;;;9.90
20103;BMP180;10210;52.284;9.892;2022-11-25T04:43:54;100239.00;;;9.90
20103;BMP180;10210;52.284;9.892;2022-11-25T04:46:23;100240.00;;;9.90
20103;BMP180;10210;52.284;9.892;2022-11-25T04:48:52;100248.00;;;9.90
20103;BMP180;10210;52.284;9.892;2022-11-25T04:51:18;100244.00;;;9.90
20103;BMP180;10210;52.284;9.892;2022-11-25T04:53:43;100247.00;;;9.80
20103;BMP180;10210;52.284;9.892;2022-11-25T04:56:17;100235.00;;;9.80
20103;BMP180;10210;52.284;9.892;2022-11-25T04:58:43;100245.00;;;9.80
20103;BMP180;10210;52.284;9.892;2022-11-25T05:01:27;100239.00;;;9.80
20103;BMP180;10210;52.284;9.892;2022-11-25T05:03:53;100231.00;;;9.80
20103;BMP180;10210;52.284;9.892;2022-11-25T05:06:19;100240.00;;;9.70
20103;BMP180;10210;52.284;9.892;2022-11-25T05:08:48;100239.00;;;9.70
20103;BMP180;10210;52.284;9.892;2022-11-25T05:11:15;100239.00;;;9.70
20103;BMP180;10210;52.284;9.892;2022-11-25T05:13:41;100239.00;;;9.70
20103;BMP180;10210;52.284;9.892;2022-11-25T05:16:07;100237.00;;;9.70
20103;BMP180;10210;52.284;9.892;2022-11-25T05:18:33;100244.00;;;9.70
20103;BMP180;10210;52.284;9.892;2022-11-25T05:21:03;100250.00;;;9.70
20103;BMP180;10210;52.284;9.892;2022-11-25T05:23:30;100249.00;;;9.70
20103;BMP180;10210;52.284;9.892;2022-11-25T05:26:03;100247.00;;;9.70
20103;BMP180;10210;52.284;9.892;2022-11-25T05:28:29;100239.00;;;9.70
20103;BMP180;10210;52.284;9.892;2022-11-25T05:30:56;100246.00;;;9.70
20103;BMP180;10210;52.284;9.892;2022-11-25T05:33:22;100245.00;;;9.70
20103;BMP180;10210;52.284;9.892;2022-11-25T05:36:01;100249.00;;;9.70
20103;BMP180;10210;52.284;9.892;2022-11-25T05:38:27;100242.00;;;9.70
20103;BMP180;10210;52.284;9.892;2022-11-25T05:41:00;100247.00;;;9.70
20103;BMP180;10210;52.284;9.892;2022-11-25T05:43:27;100231.00;;;9.70
20103;BMP180;10210;52.284;9.892;2022-11-25T05:45:52;100244.00;;;9.70
20103;BMP180;10210;52.284;9.892;2022-11-25T05:48:18;100238.00;;;9.70
20103;BMP180;10210;52.284;9.892;2022-11-25T05:50:44;100236.00;;;9.70
20103;BMP180;10210;52.284;9.892;2022-11-25T05:53:10;100232.00;;;9.70
20103;BMP180;10210;52.284;9.892;2022-11-25T05:55:36;100231.00;;;9.70
20103;BMP180;10210;52.284;9.892;2022-11-25T05:58:02;100229.00;;;9.70
20103;BMP180;10210;52.284;9.892;2022-11-25T06:00:29;100227.00;;;9.70
20103;BMP180;10210;52.284;9.892;2022-11-25T06:02:55;100222.00;;;9.70
20103;BMP180;10210;52.284;9.892;2022-11-25T06:05:21;100233.00;;;9.70
20103;BMP180;10210;52.284;9.892;2022-11-25T06:07:46;100227.00;;;9.80
20103;BMP180;10210;52.284;9.892;2022-11-25T06:10:12;100236.00;;;9.80
20103;BMP180;10210;52.284;9.892;2022-11-25T06:12:38;100241.00;;;9.80
20103;BMP180;10210;52.284;9.892;2022-11-25T06:15:05;100241.00;;;9.80
20103;BMP180;10210;52.284;9.892;2022-11-25T06:17:30;100227.00;;;9.80
20103;BMP180;10210;52.284;9.892;2022-11-25T06:19:56;100229.00;;;9.80
20103;BMP180;10210;52.284;9.892;2022-11-25T06:22:22;100254.00;;;9.80
20103;BMP180;10210;52.284;9.892;2022-11-25T06:24:47;100225.00;;;9.80
20103;BMP180;10210;52.284;9.892;2022-11-25T06:27:13;100234.00;;;9.90
20103;BMP180;10210;52.284;9.892;2022-11-25T06:29:39;100242.00;;;9.90
20103;BMP180;10210;52.284;9.892;2022-11-25T06:32:04;100236.00;;;9.90
20103;BMP180;10210;52.284;9.892;2022-11-25T06:34:30;100232.00;;;10.00
20103;BMP180;10210;52.284;9.892;2022-11-25T06:36:56;100242.00;;;10.00
20103;BMP180;10210;52.284;9.892;2022-11-25T06:39:21;100234.00;;;10.00
20103;BMP180;10210;52.284;9.892;2022-11-25T06:41:47;100247.00;;;10.10
20103;BMP180;10210;52.284;9.892;2022-11-25T06:44:13;100241.00;;;10.10
20103;BMP180;10210;52.284;9.892;2022-11-25T06:46:39;100248.00;;;10.10
20103;BMP180;10210;52.284;9.892;2022-11-25T06:49:05;100256.00;;;10.10
20103;BMP180;10210;52.284;9.892;2022-11-25T06:51:31;100254.00;;;10.20
20103;BMP180;10210;52.284;9.892;2022-11-25T06:53:57;100258.00;;;10.20
20103;BMP180;10210;52.284;9.892;2022-11-25T06:56:26;100252.00;;;10.20
20103;BMP180;10210;52.284;9.892;2022-11-25T06:58:53;100276.00;;;10.30
20103;BMP180;10210;52.284;9.892;2022-11-25T07:01:23;100280.00;;;10.30
20103;BMP180;10210;52.284;9.892;2022-11-25T07:03:57;100285.00;;;10.30
20103;BMP180;10210;52.284;9.892;2022-11-25T07:06:23;100289.00;;;10.40
20103;BMP180;10210;52.284;9.892;2022-11-25T07:08:50;100280.00;;;10.40
20103;BMP180;10210;52.284;9.892;2022-11-25T07:11:18;100286.00;;;10.40
20103;BMP180;10210;52.284;9.892;2022-11-25T07:13:45;100281.00;;;10.40
20103;BMP180;10210;52.284;9.892;2022-11-25T07:16:12;100283.00;;;10.40
20103;BMP180;10210;52.284;9.892;2022-11-25T07:18:39;100275.00;;;10.40
20103;BMP180;10210;52.284;9.892;2022-11-25T07:21:10;100287.00;;;10.40
20103;BMP180;10210;52.284;9.892;2022-11-25T07:23:36;100288.00;;;10.40
20103;BMP180;10210;52.284;9.892;2022-11-25T07:28:41;100291.00;;;10.30
20103;BMP180;10210;52.284;9.892;2022-11-25T07:33:41;100299.00;;;10.30
20103;BMP180;10210;52.284;9.892;2022-11-25T07:36:10;100308.00;;;10.30
20103;BMP180;10210;52.284;9.892;2022-11-25T07:38:37;100306.00;;;10.30
20103;BMP180;10210;52.284;9.892;2022-11-25T07:41:12;100301.00;;;10.30
20103;BMP180;10210;52.284;9.892;2022-11-25T07:43:38;100306.00;;;10.30
20103;BMP180;10210;52.284;9.892;2022-11-25T07:46:14;100305.00;;;10.30
20103;BMP180;10210;52.284;9.892;2022-11-25T07:48:41;100317.00;;;10.30
20103;BMP180;10210;52.284;9.892;2022-11-25T07:51:28;100331.00;;;10.30
20103;BMP180;10210;52.284;9.892;2022-11-25T07:53:56;100322.00;;;10.30
20103;BMP180;10210;52.284;9.892;2022-11-25T07:56:23;100330.00;;;10.40
20103;BMP180;10210;52.284;9.892;2022-11-25T07:58:49;100317.00;;;10.40
20103;BMP180;10210;52.284;9.892;2022-11-25T08:01:17;100330.00;;;10.40
20103;BMP180;10210;52.284;9.892;2022-11-25T08:03:46;100315.00;;;10.40
20103;BMP180;10210;52.284;9.892;2022-11-25T08:06:20;100326.00;;;10.40
20103;BMP180;10210;52.284;9.892;2022-11-25T08:08:46;100323.00;;;10.40
20103;BMP180;10210;52.284;9.892;2022-11-25T08:11:19;100332.00;;;10.40
20103;BMP180;10210;52.284;9.892;2022-11-25T08:13:46;100331.00;;;10.40
20103;BMP180;10210;52.284;9.892;2022-11-25T08:16:15;100340.00;;;10.40
20103;BMP180;10210;52.284;9.892;2022-11-25T08:18:42;100339.00;;;10.50
20103;BMP180;10210;52.284;9.892;2022-11-25T08:21:11;100345.00;;;10.50
20103;BMP180;10210;52.284;9.892;2022-11-25T08:23:38;100337.00;;;10.50
20103;BMP180;10210;52.284;9.892;2022-11-25T08:26:08;100339.00;;;10.60
20103;BMP180;10210;52.284;9.892;2022-11-25T08:28:35;100337.00;;;10.60
20103;BMP180;10210;52.284;9.892;2022-11-25T08:31:26;100341.00;;;10.60
20103;BMP180;10210;52.284;9.892;2022-11-25T08:33:54;100349.00;;;10.60
20103;BMP180;10210;52.284;9.892;2022-11-25T08:36:21;100348.00;;;10.70
20103;BMP180;10210;52.284;9.892;2022-11-25T08:38:49;100354.00;;;10.70
20103;BMP180;10210;52.284;9.892;2022-11-25T08:41:20;100354.00;;;10.70
20103;BMP180;10210;52.284;9.892;2022-11-25T08:43:47;100358.00;;;10.80
20103;BMP180;10210;52.284;9.892;2022-11-25T08:46:17;100358.00;;;10.80
20103;BMP180;10210;52.284;9.892;2022-11-25T08:48:44;100360.00;;;10.80
20103;BMP180;10210;52.284;9.892;2022-11-25T08:51:18;100362.00;;;10.90
20103;BMP180;10210;52.284;9.892;2022-11-25T08:53:45;100365.00;;;10.90
20103;BMP180;10210;52.284;9.892;2022-11-25T08:56:12;100366.00;;;10.90
20103;BMP180;10210;52.284;9.892;2022-11-25T08:58:38;100383.00;;;10.90
20103;BMP180;10210;52.284;9.892;2022-11-25T09:01:05;100367.00;;;11.00
20103;BMP180;10210;52.284;9.892;2022-11-25T09:03:34;100370.00;;;11.00
20103;BMP180;10210;52.284;9.892;2022-11-25T09:06:01;100371.00;;;11.00
20103;BMP180;10210;52.284;9.892;2022-11-25T09:08:27;100375.00;;;11.00
20103;BMP180;10210;52.284;9.892;2022-11-25T09:10:53;100369.00;;;11.00
20103;BMP180;10210;52.284;9.892;2022-11-25T09:13:18;100377.00;;;11.10
20103;BMP180;10210;52.284;9.892;2022-11-25T09:15:45;100369.00;;;11.10
20103;BMP180;10210;52.284;9.892;2022-11-25T09:18:12;100374.00;;;11.10
20103;BMP180;10210;52.284;9.892;2022-11-25T09:20:39;100369.00;;;11.10
20103;BMP180;10210;52.284;9.892;2022-11-25T09:23:06;100377.00;;;11.10
20103;BMP180;10210;52.284;9.892;2022-11-25T09:25:32;100378.00;;;11.20
20103;BMP180;10210;52.284;9.892;2022-11-25T09:27:58;100385.00;;;11.20
20103;BMP180;10210;52.284;9.892;2022-11-25T09:30:25;100385.00;;;11.20
20103;BMP180;10210;52.284;9.892;2022-11-25T09:32:53;100379.00;;;11.20
20103;BMP180;10210;52.284;9.892;2022-11-25T09:35:21;100396.00;;;11.20
20103;BMP180;10210;52.284;9.892;2022-11-25T09:37:48;100387.00;;;11.20
20103;BMP180;10210;52.284;9.892;2022-11-25T09:43:30;100398.00;;;11.20
20103;BMP180;10210;52.284;9.892;2022-11-25T10:00:31;100398.00;;;11.30
20103;BMP180;10210;52.284;9.892;2022-11-25T10:06:26;100418.00;;;11.30
20103;BMP180;10210;52.284;9.892;2022-11-25T10:08:57;100422.00;;;11.30
20103;BMP180;10210;52.284;9.892;2022-11-25T10:11:57;100425.00;;;11.30
20103;BMP180;10210;52.284;9.892;2022-11-25T10:14:47;100428.00;;;11.30
20103;BMP180;10210;52.284;9.892;2022-11-25T10:20:05;100414.00;;;11.40
20103;BMP180;10210;52.284;9.892;2022-11-25T10:22:55;100426.00;;;11.40
20103;BMP180;10210;52.284;9.892;2022-11-25T10:25:44;100417.00;;;11.40
20103;BMP180;10210;52.284;9.892;2022-11-25T10:28:32;100423.00;;;11.40
20103;BMP180;10210;52.284;9.892;2022-11-25T10:31:17;100420.00;;;11.40
20103;BMP180;10210;52.284;9.892;2022-11-25T10:33:46;100424.00;;;11.40
20103;BMP180;10210;52.284;9.892;2022-11-25T10:36:33;100431.00;;;11.50
20103;BMP180;10210;52.284;9.892;2022-11-25T10:39:20;100417.00;;;11.50
20103;BMP180;10210;52.284;9.892;2022-11-25T10:41:56;100415.00;;;11.50
20103;BMP180;10210;52.284;9.892;2022-11-25T10:44:30;100420.00;;;11.50
20103;BMP180;10210;52.284;9.892;2022-11-25T10:50:03;100424.00;;;11.50
20103;BMP180;10210;52.284;9.892;2022-11-25T10:52:39;100425.00;;;11.50
20103;BMP180;10210;52.284;9.892;2022-11-25T10:55:14;100425.00;;;11.50
20103;BMP180;10210;52.284;9.892;2022-11-25T10:57:41;100430.00;;;11.60
20103;BMP180;10210;52.284;9.892;2022-11-25T11:00:34;100426.00;;;11.60
20103;BMP180;10210;52.284;9.892;2022-11-25T11:03:24;100433.00;;;11.60
20103;BMP180;10210;52.284;9.892;2022-11-25T11:05:53;100426.00;;;11.60
20103;BMP180;10210;52.284;9.892;2022-11-25T11:08:39;100437.00;;;11.60
20103;BMP180;10210;52.284;9.892;2022-11-25T11:11:21;100434.00;;;11.60
20103;BMP180;10210;52.284;9.892;2022-11-25T11:13:50;100431.00;;;11.60
20103;BMP180;10210;52.284;9.892;2022-11-25T11:16:37;100440.00;;;11.60
20103;BMP180;10210;52.284;9.892;2022-11-25T11:19:04;100439.00;;;11.60
20103;BMP180;10210;52.284;9.892;2022-11-25T11:21:40;100436.00;;;11.60
20103;BMP180;10210;52.284;9.892;2022-11-25T11:24:32;100439.00;;;11.60
20103;BMP180;10210;52.284;9.892;2022-11-25T11:27:24;100445.00;;;11.60
20103;BMP180;10210;52.284;9.892;2022-11-25T11:30:21;100448.00;;;11.60
20103;BMP180;10210;52.284;9.892;2022-11-25T11:33:29;100454.00;;;11.60
20103;BMP180;10210;52.284;9.892;2022-11-25T11:42:26;100454.00;;;11.60
20103;BMP180;10210;52.284;9.892;2022-11-25T11:48:40;100456.00;;;11.60
20103;BMP180;10210;52.284;9.892;2022-11-25T11:54:36;100447.00;;;11.60
20103;BMP180;10210;52.284;9.892;2022-11-25T11:59:52;100453.00;;;11.60
20103;BMP180;10210;52.284;9.892;2022-11-25T12:02:51;100455.00;;;11.70
20103;BMP180;10210;52.284;9.892;2022-11-25T12:05:24;100466.00;;;11.70
20103;BMP180;10210;52.284;9.892;2022-11-25T12:08:55;100472.00;;;11.70
20103;BMP180;10210;52.284;9.892;2022-11-25T12:11:20;100469.00;;;11.70
20103;BMP180;10210;52.284;9.892;2022-11-25T12:14:18;100472.00;;;11.70
20103;BMP180;10210;52.284;9.892;2022-11-25T12:17:00;100475.00;;;11.80
20103;BMP180;10210;52.284;9.892;2022-11-25T12:19:43;100467.00;;;11.80
20103;BMP180;10210;52.284;9.892;2022-11-25T12:25:17;100465.00;;;11.80
20103;BMP180;10210;52.284;9.892;2022-11-25T12:30:21;100465.00;;;11.80
20103;BMP180;10210;52.284;9.892;2022-11-25T12:33:14;100475.00;;;11.80
20103;BMP180;10210;52.284;9.892;2022-11-25T12:36:05;100464.00;;;11.80
20103;BMP180;10210;52.284;9.892;2022-11-25T12:38:55;100473.00;;;11.90
20103;BMP180;10210;52.284;9.892;2022-11-25T12:41:31;100488.00;;;11.90
20103;BMP180;10210;52.284;9.892;2022-11-25T12:46:56;100484.00;;;11.90
20103;BMP180;10210;52.284;9.892;2022-11-25T12:49:31;100469.00;;;11.90
20103;BMP180;10210;52.284;9.892;2022-11-25T12:55:24;100483.00;;;11.90
20103;BMP180;10210;52.284;9.892;2022-11-25T12:58:22;100492.00;;;12.00
20103;BMP180;10210;52.284;9.892;2022-11-25T13:06:58;100502.00;;;12.10
20103;BMP180;10210;52.284;9.892;2022-11-25T13:17:43;100515.00;;;12.30
20103;BMP180;10210;52.284;9.892;2022-11-25T13:23:38;100510.00;;;12.40
20103;BMP180;10210;52.284;9.892;2022-11-25T13:28:54;100526.00;;;12.50
20103;BMP180;10210;52.284;9.892;2022-11-25T13:31:33;100529.00;;;12.50
20103;BMP180;10210;52.284;9.892;2022-11-25T13:36:47;100527.00;;;12.60
20103;BMP180;10210;52.284;9.892;2022-11-25T13:39:17;100546.00;;;12.60
20103;BMP180;10210;52.284;9.892;2022-11-25T13:44:34;100545.00;;;12.60
20103;BMP180;10210;52.284;9.892;2022-11-25T13:47:35;100552.00;;;12.60
20103;BMP180;10210;52.284;9.892;2022-11-25T13:52:48;100543.00;;;12.70
20103;BMP180;10210;52.284;9.892;2022-11-25T13:57:46;100550.00;;;12.70
20103;BMP180;10210;52.284;9.892;2022-11-25T14:02:46;100566.00;;;12.80
20103;BMP180;10210;52.284;9.892;2022-11-25T14:05:37;100569.00;;;12.80
20103;BMP180;10210;52.284;9.892;2022-11-25T14:18:07;100565.00;;;12.80
20103;BMP180;10210;52.284;9.892;2022-11-25T14:23:59;100574.00;;;12.90
20103;BMP180;10210;52.284;9.892;2022-11-25T14:26:33;100579.00;;;12.90
20103;BMP180;10210;52.284;9.892;2022-11-25T14:31:44;100592.00;;;12.90
20103;BMP180;10210;52.284;9.892;2022-11-25T14:34:26;100583.00;;;12.90
20103;BMP180;10210;52.284;9.892;2022-11-25T14:37:03;100590.00;;;12.90
20103;BMP180;10210;52.284;9.892;2022-11-25T14:42:50;100603.00;;;12.90
20103;BMP180;10210;52.284;9.892;2022-11-25T14:45:30;100600.00;;;12.90
20103;BMP180;10210;52.284;9.892;2022-11-25T14:48:17;100610.00;;;12.90
20103;BMP180;10210;52.284;9.892;2022-11-25T14:51:05;100605.00;;;12.90
20103;BMP180;10210;52.284;9.892;2022-11-25T14:53:41;100604.00;;;12.90
20103;BMP180;10210;52.284;9.892;2022-11-25T14:56:10;100607.00;;;12.90
20103;BMP180;10210;52.284;9.892;2022-11-25T14:58:41;100614.00;;;12.90
20103;BMP180;10210;52.284;9.892;2022-11-25T15:01:32;100621.00;;;12.90
20103;BMP180;10210;52.284;9.892;2022-11-25T15:04:21;100626.00;;;12.80
20103;BMP180;10210;52.284;9.892;2022-11-25T15:06:56;100632.00;;;12.80
20103;BMP180;10210;52.284;9.892;2022-11-25T15:09:30;100628.00;;;12.80
20103;BMP180;10210;52.284;9.892;2022-11-25T15:12:14;100634.00;;;12.80
20103;BMP180;10210;52.284;9.892;2022-11-25T15:14:48;100628.00;;;12.70
20103;BMP180;10210;52.284;9.892;2022-11-25T15:17:30;100636.00;;;12.70
20103;BMP180;10210;52.284;9.892;2022-11-25T15:20:10;100640.00;;;12.70
20103;BMP180;10210;52.284;9.892;2022-11-25T15:22:36;100638.00;;;12.60
20103;BMP180;10210;52.284;9.892;2022-11-25T15:25:12;100642.00;;;12.60
20103;BMP180;10210;52.284;9.892;2022-11-25T15:27:49;100638.00;;;12.50
20103;BMP180;10210;52.284;9.892;2022-11-25T15:30:24;100649.00;;;12.50
20103;BMP180;10210;52.284;9.892;2022-11-25T15:32:51;100653.00;;;12.50
20103;BMP180;10210;52.284;9.892;2022-11-25T15:35:22;100656.00;;;12.50
20103;BMP180;10210;52.284;9.892;2022-11-25T15:37:49;100657.00;;;12.40
20103;BMP180;10210;52.284;9.892;2022-11-25T15:40:30;100658.00;;;12.40
20103;BMP180;10210;52.284;9.892;2022-11-25T15:42:59;100668.00;;;12.30
20103;BMP180;10210;52.284;9.892;2022-11-25T15:45:35;100661.00;;;12.30
20103;BMP180;10210;52.284;9.892;2022-11-25T15:48:02;100669.00;;;12.30
20103;BMP180;10210;52.284;9.892;2022-11-25T15:50:29;100665.00;;;12.30
20103;BMP180;10210;52.284;9.892;2022-11-25T15:52:59;100664.00;;;12.20
20103;BMP180;10210;52.284;9.892;2022-11-25T15:55:35;100670.00;;;12.20
20103;BMP180;10210;52.284;9.892;2022-11-25T15:58:21;100677.00;;;12.20
20103;BMP180;10210;52.284;9.892;2022-11-25T16:03:27;100686.00;;;12.10
20103;BMP180;10210;52.284;9.892;2022-11-25T16:05:55;100688.00;;;12.10
20103;BMP180;10210;52.284;9.892;2022-11-25T16:08:35;100695.00;;;12.10
20103;BMP180;10210;52.284;9.892;2022-11-25T16:11:16;100701.00;;;12.00
20103;BMP180;10210;52.284;9.892;2022-11-25T16:13:49;100708.00;;;12.00
20103;BMP180;10210;52.284;9.892;2022-11-25T16:16:29;100704.00;;;12.00
20103;BMP180;10210;52.284;9.892;2022-11-25T16:26:55;100717.00;;;11.90
20103;BMP180;10210;52.284;9.892;2022-11-25T16:31:58;100713.00;;;11.90
20103;BMP180;10210;52.284;9.892;2022-11-25T16:34:24;100722.00;;;11.90
20103;BMP180;10210;52.284;9.892;2022-11-25T16:36:51;100724.00;;;11.80
20103;BMP180;10210;52.284;9.892;2022-11-25T16:39:17;100727.00;;;11.80